sensor_id;sensor_type;location;lat;lon;timestamp;temperature;humidity
48604;DHT22;32708;51.212;6.788;2024-02-04T00:01:04;10.80;99.90
48604;DHT22;32708;51.212;6.788;2024-02-04T00:03:31;10.80;99.90
48604;DHT22;32708;51.212;6.788;2024-02-04T00:06:04;10.70;99.90
48604;DHT22;32708;51.212;6.788;2024-02-04T00:08:31;10.70;99.90
48604;DHT22;32708;51.212;6.788;2024-02-04T00:10:58;10.80;99.90
48604;DHT22;32708;51.212;6.788;2024-02-04T00:13:28;10.70;99.90
48604;DHT22;32708;51.212;6.788;2024-02-04T00:15:58;10.80;99.90
48604;DHT22;32708;51.212;6.788;2024-02-04T00:18:25;10.80;99.90
48604;DHT22;32708;51.212;6.788;2024-02-04T00:20:52;10.80;99.90
48604;DHT22;32708;51.212;6.788;2024-02-04T00:23:21;10.80;99.90
48604;DHT22;32708;51.212;6.788;2024-02-04T00:25:47;10.90;99.90
48604;DHT22;32708;51.212;6.788;2024-02-04T00:28:15;10.90;99.90
48604;DHT22;32708;51.212;6.788;2024-02-04T00:30:42;11.00;99.90
48604;DHT22;32708;51.212;6.788;2024-02-04T00:33:09;10.80;99.90
48604;DHT22;32708;51.212;6.788;2024-02-04T00:35:36;10.80;99.90
48604;DHT22;32708;51.212;6.788;2024-02-04T00:38:03;10.80;99.90
48604;DHT22;32708;51.212;6.788;2024-02-04T00:40:30;10.70;99.90
48604;DHT22;32708;51.212;6.788;2024-02-04T00:42:57;10.70;99.90
48604;DHT22;32708;51.212;6.788;2024-02-04T00:45:24;10.70;99.90
48604;DHT22;32708;51.212;6.788;2024-02-04T00:47:50;10.60;99.90
48604;DHT22;32708;51.212;6.788;2024-02-04T00:50:18;10.60;99.90
48604;DHT22;32708;51.212;6.788;2024-02-04T00:52:45;10.80;99.90
48604;DHT22;32708;51.212;6.788;2024-02-04T00:55:12;10.70;99.90
48604;DHT22;32708;51.212;6.788;2024-02-04T00:57:38;10.60;99.90
48604;DHT22;32708;51.212;6.788;2024-02-04T01:00:05;10.60;99.90
48604;DHT22;32708;51.212;6.788;2024-02-04T01:02:32;10.60;99.90
48604;DHT22;32708;51.212;6.788;2024-02-04T01:04:58;10.60;99.90
48604;DHT22;32708;51.212;6.788;2024-02-04T01:07:25;10.60;99.90
48604;DHT22;32708;51.212;6.788;2024-02-04T01:09:52;10.60;99.90
48604;DHT22;32708;51.212;6.788;2024-02-04T01:12:23;10.60;99.90
48604;DHT22;32708;51.212;6.788;2024-02-04T01:14:51;10.50;99.90
48604;DHT22;32708;51.212;6.788;2024-02-04T01:17:21;10.50;99.90
48604;DHT22;32708;51.212;6.788;2024-02-04T01:19:48;11.50;99.90
48604;DHT22;32708;51.212;6.788;2024-02-04T01:22:15;10.50;99.90
48604;DHT22;32708;51.212;6.788;2024-02-04T01:24:44;10.50;99.90
48604;DHT22;32708;51.212;6.788;2024-02-04T01:27:15;10.60;99.90
48604;DHT22;32708;51.212;6.788;2024-02-04T01:29:42;11.20;99.90
48604;DHT22;32708;51.212;6.788;2024-02-04T01:32:09;10.00;99.90
48604;DHT22;32708;51.212;6.788;2024-02-04T01:34:38;10.50;99.90
48604;DHT22;32708;51.212;6.788;2024-02-04T01:37:05;10.50;99.90
48604;DHT22;32708;51.212;6.788;2024-02-04T01:39:34;10.50;99.90
48604;DHT22;32708;51.212;6.788;2024-02-04T01:42:02;10.50;99.90
48604;DHT22;32708;51.212;6.788;2024-02-04T01:44:28;10.60;99.90
48604;DHT22;32708;51.212;6.788;2024-02-04T01:46:55;10.30;99.90
48604;DHT22;32708;51.212;6.788;2024-02-04T01:49:22;10.20;99.90
48604;DHT22;32708;51.212;6.788;2024-02-04T01:51:54;10.60;99.90
48604;DHT22;32708;51.212;6.788;2024-02-04T01:54:24;10.60;99.90
48604;DHT22;32708;51.212;6.788;2024-02-04T01:56:52;10.60;99.90
48604;DHT22;32708;51.212;6.788;2024-02-04T01:59:24;10.60;99.90
48604;DHT22;32708;51.212;6.788;2024-02-04T02:02:01;10.50;99.90
48604;DHT22;32708;51.212;6.788;2024-02-04T02:04:28;10.60;99.90
48604;DHT22;32708;51.212;6.788;2024-02-04T02:06:55;10.60;99.90
48604;DHT22;32708;51.212;6.788;2024-02-04T02:09:22;10.60;99.90
48604;DHT22;32708;51.212;6.788;2024-02-04T02:14:35;10.60;99.90
48604;DHT22;32708;51.212;6.788;2024-02-04T02:17:10;10.50;99.90
48604;DHT22;32708;51.212;6.788;2024-02-04T02:19:52;11.10;99.90
48604;DHT22;32708;51.212;6.788;2024-02-04T02:22:39;10.10;99.90
48604;DHT22;32708;51.212;6.788;2024-02-04T02:25:11;10.30;99.90
48604;DHT22;32708;51.212;6.788;2024-02-04T02:27:50;10.60;99.90
48604;DHT22;32708;51.212;6.788;2024-02-04T02:30:21;10.70;99.90
48604;DHT22;32708;51.212;6.788;2024-02-04T02:32:49;10.60;99.90
48604;DHT22;32708;51.212;6.788;2024-02-04T02:35:18;11.30;99.90
48604;DHT22;32708;51.212;6.788;2024-02-04T02:41:12;10.70;99.90
48604;DHT22;32708;51.212;6.788;2024-02-04T02:43:44;10.80;99.90
48604;DHT22;32708;51.212;6.788;2024-02-04T02:46:15;10.70;99.90
48604;DHT22;32708;51.212;6.788;2024-02-04T02:48:45;10.70;99.90
48604;DHT22;32708;51.212;6.788;2024-02-04T02:51:13;10.60;99.90
48604;DHT22;32708;51.212;6.788;2024-02-04T02:53:40;10.30;99.90
48604;DHT22;32708;51.212;6.788;2024-02-04T02:56:10;10.80;99.90
48604;DHT22;32708;51.212;6.788;2024-02-04T02:58:37;10.70;99.90
48604;DHT22;32708;51.212;6.788;2024-02-04T03:01:04;10.80;99.90
48604;DHT22;32708;51.212;6.788;2024-02-04T03:03:30;10.70;99.90
48604;DHT22;32708;51.212;6.788;2024-02-04T03:05:57;10.80;99.90
48604;DHT22;32708;51.212;6.788;2024-02-04T03:08:24;10.80;99.90
48604;DHT22;32708;51.212;6.788;2024-02-04T03:10:51;10.80;99.90
48604;DHT22;32708;51.212;6.788;2024-02-04T03:13:18;10.80;99.90
48604;DHT22;32708;51.212;6.788;2024-02-04T03:15:44;11.30;99.90
48604;DHT22;32708;51.212;6.788;2024-02-04T03:18:13;10.80;99.90
48604;DHT22;32708;51.212;6.788;2024-02-04T03:20:40;10.80;99.90
48604;DHT22;32708;51.212;6.788;2024-02-04T03:23:06;10.50;99.90
48604;DHT22;32708;51.212;6.788;2024-02-04T03:25:34;10.30;99.90
48604;DHT22;32708;51.212;6.788;2024-02-04T03:28:03;11.00;99.90
48604;DHT22;32708;51.212;6.788;2024-02-04T03:30:31;11.00;99.90
48604;DHT22;32708;51.212;6.788;2024-02-04T03:33:04;10.80;99.90
48604;DHT22;32708;51.212;6.788;2024-02-04T03:35:36;10.50;99.90
48604;DHT22;32708;51.212;6.788;2024-02-04T03:38:05;10.90;99.90
48604;DHT22;32708;51.212;6.788;2024-02-04T03:40:31;10.80;99.90
48604;DHT22;32708;51.212;6.788;2024-02-04T03:42:59;10.90;99.90
48604;DHT22;32708;51.212;6.788;2024-02-04T03:45:27;10.70;99.90
48604;DHT22;32708;51.212;6.788;2024-02-04T03:47:55;10.80;99.90
48604;DHT22;32708;51.212;6.788;2024-02-04T03:50:22;10.80;99.90
48604;DHT22;32708;51.212;6.788;2024-02-04T03:52:50;10.80;99.90
48604;DHT22;32708;51.212;6.788;2024-02-04T03:55:19;10.90;99.90
48604;DHT22;32708;51.212;6.788;2024-02-04T03:57:49;10.80;99.90
48604;DHT22;32708;51.212;6.788;2024-02-04T04:00:20;10.50;99.90
48604;DHT22;32708;51.212;6.788;2024-02-04T04:02:49;10.90;99.90
48604;DHT22;32708;51.212;6.788;2024-02-04T04:05:17;11.10;99.90
48604;DHT22;32708;51.212;6.788;2024-02-04T04:07:47;10.90;99.90
48604;DHT22;32708;51.212;6.788;2024-02-04T04:10:14;10.90;99.90
48604;DHT22;32708;51.212;6.788;2024-02-04T04:12:41;11.00;99.90
48604;DHT22;32708;51.212;6.788;2024-02-04T04:15:10;11.00;99.90
48604;DHT22;32708;51.212;6.788;2024-02-04T04:17:40;10.60;99.90
48604;DHT22;32708;51.212;6.788;2024-02-04T04:20:09;11.00;99.90
48604;DHT22;32708;51.212;6.788;2024-02-04T04:22:39;11.00;99.90
48604;DHT22;32708;51.212;6.788;2024-02-04T04:25:08;11.00;99.90
48604;DHT22;32708;51.212;6.788;2024-02-04T04:27:39;11.00;99.90
48604;DHT22;32708;51.212;6.788;2024-02-04T04:30:07;11.10;99.90
48604;DHT22;32708;51.212;6.788;2024-02-04T04:32:35;11.10;99.90
48604;DHT22;32708;51.212;6.788;2024-02-04T04:35:07;11.10;99.90
48604;DHT22;32708;51.212;6.788;2024-02-04T04:37:34;11.50;99.90
48604;DHT22;32708;51.212;6.788;2024-02-04T04:40:05;11.10;99.90
48604;DHT22;32708;51.212;6.788;2024-02-04T04:42:33;11.00;99.90
48604;DHT22;32708;51.212;6.788;2024-02-04T04:45:01;11.60;99.90
48604;DHT22;32708;51.212;6.788;2024-02-04T04:47:30;11.10;99.90
48604;DHT22;32708;51.212;6.788;2024-02-04T04:49:57;11.10;99.90
48604;DHT22;32708;51.212;6.788;2024-02-04T04:52:24;11.20;99.90
48604;DHT22;32708;51.212;6.788;2024-02-04T04:54:53;11.10;99.90
48604;DHT22;32708;51.212;6.788;2024-02-04T04:57:19;11.10;99.90
48604;DHT22;32708;51.212;6.788;2024-02-04T04:59:48;10.90;99.90
48604;DHT22;32708;51.212;6.788;2024-02-04T05:02:14;11.00;99.90
48604;DHT22;32708;51.212;6.788;2024-02-04T05:04:44;11.40;99.90
48604;DHT22;32708;51.212;6.788;2024-02-04T05:07:11;11.00;99.90
48604;DHT22;32708;51.212;6.788;2024-02-04T05:09:38;10.70;99.90
48604;DHT22;32708;51.212;6.788;2024-02-04T05:12:07;10.90;99.90
48604;DHT22;32708;51.212;6.788;2024-02-04T05:14:35;11.10;99.90
48604;DHT22;32708;51.212;6.788;2024-02-04T05:17:02;11.10;99.90
48604;DHT22;32708;51.212;6.788;2024-02-04T05:19:29;10.70;99.90
48604;DHT22;32708;51.212;6.788;2024-02-04T05:21:56;11.00;99.90
48604;DHT22;32708;51.212;6.788;2024-02-04T05:24:22;11.10;99.90
48604;DHT22;32708;51.212;6.788;2024-02-04T05:26:49;11.10;99.90
48604;DHT22;32708;51.212;6.788;2024-02-04T05:29:15;11.10;99.90
48604;DHT22;32708;51.212;6.788;2024-02-04T05:31:42;10.60;99.90
48604;DHT22;32708;51.212;6.788;2024-02-04T05:34:10;11.10;99.90
48604;DHT22;32708;51.212;6.788;2024-02-04T05:36:37;11.10;99.90
48604;DHT22;32708;51.212;6.788;2024-02-04T05:39:14;11.20;99.90
48604;DHT22;32708;51.212;6.788;2024-02-04T05:41:42;11.50;99.90
48604;DHT22;32708;51.212;6.788;2024-02-04T05:44:09;11.00;99.90
48604;DHT22;32708;51.212;6.788;2024-02-04T05:46:36;11.00;99.90
48604;DHT22;32708;51.212;6.788;2024-02-04T05:49:03;11.10;99.90
48604;DHT22;32708;51.212;6.788;2024-02-04T05:51:31;11.10;99.90
48604;DHT22;32708;51.212;6.788;2024-02-04T05:53:59;11.20;99.90
48604;DHT22;32708;51.212;6.788;2024-02-04T05:56:25;11.10;99.90
48604;DHT22;32708;51.212;6.788;2024-02-04T05:58:52;11.20;99.90
48604;DHT22;32708;51.212;6.788;2024-02-04T06:01:18;11.10;99.90
48604;DHT22;32708;51.212;6.788;2024-02-04T06:03:44;11.20;99.90
48604;DHT22;32708;51.212;6.788;2024-02-04T06:06:15;11.10;99.90
48604;DHT22;32708;51.212;6.788;2024-02-04T06:08:42;11.10;99.90
48604;DHT22;32708;51.212;6.788;2024-02-04T06:11:12;11.20;99.90
48604;DHT22;32708;51.212;6.788;2024-02-04T06:13:44;11.20;99.90
48604;DHT22;32708;51.212;6.788;2024-02-04T06:16:11;11.10;99.90
48604;DHT22;32708;51.212;6.788;2024-02-04T06:18:39;11.00;99.90
48604;DHT22;32708;51.212;6.788;2024-02-04T06:21:06;11.00;99.90
48604;DHT22;32708;51.212;6.788;2024-02-04T06:23:33;11.10;99.90
48604;DHT22;32708;51.212;6.788;2024-02-04T06:26:02;11.10;99.90
48604;DHT22;32708;51.212;6.788;2024-02-04T06:28:28;11.10;99.90
48604;DHT22;32708;51.212;6.788;2024-02-04T06:30:54;11.10;99.90
48604;DHT22;32708;51.212;6.788;2024-02-04T06:33:21;11.10;99.90
48604;DHT22;32708;51.212;6.788;2024-02-04T06:35:49;11.40;99.90
48604;DHT22;32708;51.212;6.788;2024-02-04T06:38:15;11.20;99.90
48604;DHT22;32708;51.212;6.788;2024-02-04T06:40:43;11.20;99.90
48604;DHT22;32708;51.212;6.788;2024-02-04T06:43:09;11.10;99.90
48604;DHT22;32708;51.212;6.788;2024-02-04T06:45:37;11.10;99.90
48604;DHT22;32708;51.212;6.788;2024-02-04T06:48:08;11.10;99.90
48604;DHT22;32708;51.212;6.788;2024-02-04T06:50:37;10.60;99.90
48604;DHT22;32708;51.212;6.788;2024-02-04T06:53:04;11.00;99.90
48604;DHT22;32708;51.212;6.788;2024-02-04T06:55:34;11.00;99.90
48604;DHT22;32708;51.212;6.788;2024-02-04T06:58:00;10.90;99.90
48604;DHT22;32708;51.212;6.788;2024-02-04T07:00:27;11.00;99.90
48604;DHT22;32708;51.212;6.788;2024-02-04T07:02:54;11.00;99.90
48604;DHT22;32708;51.212;6.788;2024-02-04T07:05:24;11.00;99.90
48604;DHT22;32708;51.212;6.788;2024-02-04T07:07:51;11.00;99.90
48604;DHT22;32708;51.212;6.788;2024-02-04T07:10:18;11.60;99.90
48604;DHT22;32708;51.212;6.788;2024-02-04T07:12:45;11.10;99.90
48604;DHT22;32708;51.212;6.788;2024-02-04T07:15:11;11.00;99.90
48604;DHT22;32708;51.212;6.788;2024-02-04T07:17:38;11.00;99.90
48604;DHT22;32708;51.212;6.788;2024-02-04T07:20:05;11.00;99.90
48604;DHT22;32708;51.212;6.788;2024-02-04T07:22:32;10.90;99.90
48604;DHT22;32708;51.212;6.788;2024-02-04T07:24:58;10.90;99.90
48604;DHT22;32708;51.212;6.788;2024-02-04T07:27:24;10.90;99.90
48604;DHT22;32708;51.212;6.788;2024-02-04T07:29:50;10.90;99.90
48604;DHT22;32708;51.212;6.788;2024-02-04T07:32:17;10.90;99.90
48604;DHT22;32708;51.212;6.788;2024-02-04T07:34:44;10.90;99.90
48604;DHT22;32708;51.212;6.788;2024-02-04T07:37:10;10.90;99.90
48604;DHT22;32708;51.212;6.788;2024-02-04T07:39:36;11.10;99.90
48604;DHT22;32708;51.212;6.788;2024-02-04T07:42:03;11.00;99.90
48604;DHT22;32708;51.212;6.788;2024-02-04T07:44:29;10.90;99.90
48604;DHT22;32708;51.212;6.788;2024-02-04T07:46:59;11.00;99.90
48604;DHT22;32708;51.212;6.788;2024-02-04T07:49:25;11.00;99.90
48604;DHT22;32708;51.212;6.788;2024-02-04T07:51:51;10.90;99.90
48604;DHT22;32708;51.212;6.788;2024-02-04T07:54:18;10.90;99.90
48604;DHT22;32708;51.212;6.788;2024-02-04T07:56:44;10.90;99.90
48604;DHT22;32708;51.212;6.788;2024-02-04T07:59:10;10.90;99.90
48604;DHT22;32708;51.212;6.788;2024-02-04T08:01:37;11.00;99.90
48604;DHT22;32708;51.212;6.788;2024-02-04T08:04:03;11.60;99.90
48604;DHT22;32708;51.212;6.788;2024-02-04T08:06:31;10.90;99.90
48604;DHT22;32708;51.212;6.788;2024-02-04T08:09:00;10.90;99.90
48604;DHT22;32708;51.212;6.788;2024-02-04T08:11:26;11.00;99.90
48604;DHT22;32708;51.212;6.788;2024-02-04T08:13:52;11.00;99.90
48604;DHT22;32708;51.212;6.788;2024-02-04T08:16:18;10.90;99.90
48604;DHT22;32708;51.212;6.788;2024-02-04T08:18:46;11.00;99.90
48604;DHT22;32708;51.212;6.788;2024-02-04T08:21:12;11.10;99.90
48604;DHT22;32708;51.212;6.788;2024-02-04T08:23:39;11.10;99.90
48604;DHT22;32708;51.212;6.788;2024-02-04T08:26:05;11.00;99.90
48604;DHT22;32708;51.212;6.788;2024-02-04T08:28:32;11.00;99.90
48604;DHT22;32708;51.212;6.788;2024-02-04T08:30:58;11.10;99.90
48604;DHT22;32708;51.212;6.788;2024-02-04T08:33:24;11.10;99.90
48604;DHT22;32708;51.212;6.788;2024-02-04T08:35:50;11.10;99.90
48604;DHT22;32708;51.212;6.788;2024-02-04T08:38:17;11.10;99.90
48604;DHT22;32708;51.212;6.788;2024-02-04T08:40:43;11.80;99.90
48604;DHT22;32708;51.212;6.788;2024-02-04T08:43:09;11.00;99.90
48604;DHT22;32708;51.212;6.788;2024-02-04T08:45:35;11.10;99.90
48604;DHT22;32708;51.212;6.788;2024-02-04T08:48:01;11.10;99.90
48604;DHT22;32708;51.212;6.788;2024-02-04T08:50:29;11.10;99.90
48604;DHT22;32708;51.212;6.788;2024-02-04T08:52:55;11.20;99.90
48604;DHT22;32708;51.212;6.788;2024-02-04T08:55:21;11.20;99.90
48604;DHT22;32708;51.212;6.788;2024-02-04T08:57:47;11.30;99.90
48604;DHT22;32708;51.212;6.788;2024-02-04T09:00:15;11.20;99.90
48604;DHT22;32708;51.212;6.788;2024-02-04T09:02:41;11.20;99.90
48604;DHT22;32708;51.212;6.788;2024-02-04T09:05:10;11.30;99.90
48604;DHT22;32708;51.212;6.788;2024-02-04T09:07:37;11.40;99.90
48604;DHT22;32708;51.212;6.788;2024-02-04T09:10:06;11.30;99.90
48604;DHT22;32708;51.212;6.788;2024-02-04T09:12:33;11.40;99.90
48604;DHT22;32708;51.212;6.788;2024-02-04T09:15:00;11.30;99.90
48604;DHT22;32708;51.212;6.788;2024-02-04T09:17:26;11.40;99.90
48604;DHT22;32708;51.212;6.788;2024-02-04T09:19:52;11.40;99.90
48604;DHT22;32708;51.212;6.788;2024-02-04T09:22:19;11.40;99.90
48604;DHT22;32708;51.212;6.788;2024-02-04T09:24:45;11.40;99.90
48604;DHT22;32708;51.212;6.788;2024-02-04T09:27:12;11.30;99.90
48604;DHT22;32708;51.212;6.788;2024-02-04T09:29:39;11.30;99.90
48604;DHT22;32708;51.212;6.788;2024-02-04T09:32:05;11.40;99.90
48604;DHT22;32708;51.212;6.788;2024-02-04T09:34:32;11.40;99.90
48604;DHT22;32708;51.212;6.788;2024-02-04T09:36:58;11.30;99.90
48604;DHT22;32708;51.212;6.788;2024-02-04T09:39:24;11.30;99.90
48604;DHT22;32708;51.212;6.788;2024-02-04T09:41:54;11.30;99.90
48604;DHT22;32708;51.212;6.788;2024-02-04T09:44:22;11.30;99.90
48604;DHT22;32708;51.212;6.788;2024-02-04T09:46:49;11.40;99.90
48604;DHT22;32708;51.212;6.788;2024-02-04T09:49:16;11.40;99.90
48604;DHT22;32708;51.212;6.788;2024-02-04T09:51:42;11.40;99.90
48604;DHT22;32708;51.212;6.788;2024-02-04T09:54:11;11.30;99.90
48604;DHT22;32708;51.212;6.788;2024-02-04T09:56:38;11.40;99.90
48604;DHT22;32708;51.212;6.788;2024-02-04T09:59:06;11.50;99.90
48604;DHT22;32708;51.212;6.788;2024-02-04T10:01:33;11.40;99.90
48604;DHT22;32708;51.212;6.788;2024-02-04T10:04:17;11.40;99.90
48604;DHT22;32708;51.212;6.788;2024-02-04T10:06:50;11.50;99.90
48604;DHT22;32708;51.212;6.788;2024-02-04T10:09:16;11.00;99.90
48604;DHT22;32708;51.212;6.788;2024-02-04T10:11:42;11.60;99.90
48604;DHT22;32708;51.212;6.788;2024-02-04T10:14:09;12.10;99.90
48604;DHT22;32708;51.212;6.788;2024-02-04T10:16:36;12.20;99.90
48604;DHT22;32708;51.212;6.788;2024-02-04T10:19:03;11.80;99.90
48604;DHT22;32708;51.212;6.788;2024-02-04T10:21:29;11.90;99.90
48604;DHT22;32708;51.212;6.788;2024-02-04T10:23:59;11.60;99.90
48604;DHT22;32708;51.212;6.788;2024-02-04T10:26:29;11.80;99.90
48604;DHT22;32708;51.212;6.788;2024-02-04T10:29:02;12.00;99.90
48604;DHT22;32708;51.212;6.788;2024-02-04T10:31:33;11.80;99.90
48604;DHT22;32708;51.212;6.788;2024-02-04T10:33:59;11.80;99.90
48604;DHT22;32708;51.212;6.788;2024-02-04T10:36:27;11.80;99.90
48604;DHT22;32708;51.212;6.788;2024-02-04T10:38:56;11.70;99.90
48604;DHT22;32708;51.212;6.788;2024-02-04T10:41:25;11.70;99.90
48604;DHT22;32708;51.212;6.788;2024-02-04T10:43:58;11.70;99.90
48604;DHT22;32708;51.212;6.788;2024-02-04T10:46:30;11.60;99.90
48604;DHT22;32708;51.212;6.788;2024-02-04T10:49:01;11.60;99.90
48604;DHT22;32708;51.212;6.788;2024-02-04T10:51:31;11.60;99.90
48604;DHT22;32708;51.212;6.788;2024-02-04T10:53:59;11.60;99.90
48604;DHT22;32708;51.212;6.788;2024-02-04T10:56:42;11.60;99.90
48604;DHT22;32708;51.212;6.788;2024-02-04T10:59:11;11.50;99.90
48604;DHT22;32708;51.212;6.788;2024-02-04T11:01:45;11.60;99.90
48604;DHT22;32708;51.212;6.788;2024-02-04T11:04:16;11.60;99.90
48604;DHT22;32708;51.212;6.788;2024-02-04T11:06:45;11.70;99.90
48604;DHT22;32708;51.212;6.788;2024-02-04T11:09:13;11.70;99.90
48604;DHT22;32708;51.212;6.788;2024-02-04T11:11:46;11.60;99.90
48604;DHT22;32708;51.212;6.788;2024-02-04T11:14:19;11.20;99.90
48604;DHT22;32708;51.212;6.788;2024-02-04T11:17:10;11.50;99.90
48604;DHT22;32708;51.212;6.788;2024-02-04T11:20:04;11.50;99.90
48604;DHT22;32708;51.212;6.788;2024-02-04T11:23:10;11.50;99.90
48604;DHT22;32708;51.212;6.788;2024-02-04T11:25:56;11.40;99.90
48604;DHT22;32708;51.212;6.788;2024-02-04T11:28:26;11.30;99.90
48604;DHT22;32708;51.212;6.788;2024-02-04T11:30:53;11.30;99.90
48604;DHT22;32708;51.212;6.788;2024-02-04T11:33:29;11.40;99.90
48604;DHT22;32708;51.212;6.788;2024-02-04T11:36:14;11.40;99.90
48604;DHT22;32708;51.212;6.788;2024-02-04T11:38:41;11.40;99.90
48604;DHT22;32708;51.212;6.788;2024-02-04T11:41:07;11.50;99.90
48604;DHT22;32708;51.212;6.788;2024-02-04T11:43:38;11.50;99.90
48604;DHT22;32708;51.212;6.788;2024-02-04T11:46:05;11.50;99.90
48604;DHT22;32708;51.212;6.788;2024-02-04T11:48:34;11.60;99.90
48604;DHT22;32708;51.212;6.788;2024-02-04T11:51:00;11.70;99.90
48604;DHT22;32708;51.212;6.788;2024-02-04T11:53:26;11.80;99.90
48604;DHT22;32708;51.212;6.788;2024-02-04T11:55:59;11.90;99.90
48604;DHT22;32708;51.212;6.788;2024-02-04T11:58:30;11.90;99.90
48604;DHT22;32708;51.212;6.788;2024-02-04T12:00:57;11.70;99.90
48604;DHT22;32708;51.212;6.788;2024-02-04T12:03:31;11.70;99.90
48604;DHT22;32708;51.212;6.788;2024-02-04T12:05:59;11.80;99.90
48604;DHT22;32708;51.212;6.788;2024-02-04T12:08:31;11.80;99.90
48604;DHT22;32708;51.212;6.788;2024-02-04T12:11:00;11.70;99.90
48604;DHT22;32708;51.212;6.788;2024-02-04T12:13:29;11.70;99.90
48604;DHT22;32708;51.212;6.788;2024-02-04T12:15:57;11.70;99.90
48604;DHT22;32708;51.212;6.788;2024-02-04T12:18:24;11.70;99.90
48604;DHT22;32708;51.212;6.788;2024-02-04T12:20:50;11.70;99.90
48604;DHT22;32708;51.212;6.788;2024-02-04T12:23:18;11.70;99.90
48604;DHT22;32708;51.212;6.788;2024-02-04T12:25:45;11.80;99.90
48604;DHT22;32708;51.212;6.788;2024-02-04T12:28:11;11.70;99.90
48604;DHT22;32708;51.212;6.788;2024-02-04T12:30:39;11.70;99.90
48604;DHT22;32708;51.212;6.788;2024-02-04T12:33:06;11.70;99.90
48604;DHT22;32708;51.212;6.788;2024-02-04T12:35:33;11.60;99.90
48604;DHT22;32708;51.212;6.788;2024-02-04T12:38:00;11.70;99.90
48604;DHT22;32708;51.212;6.788;2024-02-04T12:40:28;11.60;99.90
48604;DHT22;32708;51.212;6.788;2024-02-04T12:42:55;11.80;99.90
48604;DHT22;32708;51.212;6.788;2024-02-04T12:45:23;11.70;99.90
48604;DHT22;32708;51.212;6.788;2024-02-04T12:47:57;11.70;99.90
48604;DHT22;32708;51.212;6.788;2024-02-04T12:50:28;11.60;99.90
48604;DHT22;32708;51.212;6.788;2024-02-04T12:53:04;11.60;99.90
48604;DHT22;32708;51.212;6.788;2024-02-04T12:55:34;12.10;99.90
48604;DHT22;32708;51.212;6.788;2024-02-04T12:58:10;11.50;99.90
48604;DHT22;32708;51.212;6.788;2024-02-04T13:00:38;11.60;99.90
48604;DHT22;32708;51.212;6.788;2024-02-04T13:03:07;11.70;99.90
48604;DHT22;32708;51.212;6.788;2024-02-04T13:05:35;11.60;99.90
48604;DHT22;32708;51.212;6.788;2024-02-04T13:08:03;11.60;99.90
48604;DHT22;32708;51.212;6.788;2024-02-04T13:10:40;11.50;99.90
48604;DHT22;32708;51.212;6.788;2024-02-04T13:13:25;11.60;99.90
48604;DHT22;32708;51.212;6.788;2024-02-04T13:15:54;11.50;99.90
48604;DHT22;32708;51.212;6.788;2024-02-04T13:18:22;11.40;99.90
48604;DHT22;32708;51.212;6.788;2024-02-04T13:20:48;11.50;99.90
48604;DHT22;32708;51.212;6.788;2024-02-04T13:23:14;11.10;99.90
48604;DHT22;32708;51.212;6.788;2024-02-04T13:25:41;11.50;99.90
48604;DHT22;32708;51.212;6.788;2024-02-04T13:28:16;11.50;99.90
48604;DHT22;32708;51.212;6.788;2024-02-04T13:30:44;11.60;99.90
48604;DHT22;32708;51.212;6.788;2024-02-04T13:33:14;11.60;99.90
48604;DHT22;32708;51.212;6.788;2024-02-04T13:36:27;11.40;99.90
48604;DHT22;32708;51.212;6.788;2024-02-04T13:38:57;11.70;99.90
48604;DHT22;32708;51.212;6.788;2024-02-04T13:41:41;11.70;99.90
48604;DHT22;32708;51.212;6.788;2024-02-04T13:44:26;11.30;99.90
48604;DHT22;32708;51.212;6.788;2024-02-04T13:46:56;11.70;99.90
48604;DHT22;32708;51.212;6.788;2024-02-04T13:49:24;11.80;99.90
48604;DHT22;32708;51.212;6.788;2024-02-04T13:51:51;11.80;99.90
48604;DHT22;32708;51.212;6.788;2024-02-04T13:54:17;12.40;99.90
48604;DHT22;32708;51.212;6.788;2024-02-04T13:56:45;11.70;99.90
48604;DHT22;32708;51.212;6.788;2024-02-04T13:59:12;11.70;99.90
48604;DHT22;32708;51.212;6.788;2024-02-04T14:01:42;11.70;99.90
48604;DHT22;32708;51.212;6.788;2024-02-04T14:04:30;11.30;99.90
48604;DHT22;32708;51.212;6.788;2024-02-04T14:06:57;11.70;99.90
48604;DHT22;32708;51.212;6.788;2024-02-04T14:09:24;11.70;99.90
48604;DHT22;32708;51.212;6.788;2024-02-04T14:11:51;11.60;99.90
48604;DHT22;32708;51.212;6.788;2024-02-04T14:14:17;11.60;99.90
48604;DHT22;32708;51.212;6.788;2024-02-04T14:16:44;11.60;99.90
48604;DHT22;32708;51.212;6.788;2024-02-04T14:19:10;12.00;99.90
48604;DHT22;32708;51.212;6.788;2024-02-04T14:21:42;11.60;99.90
48604;DHT22;32708;51.212;6.788;2024-02-04T14:24:09;11.60;99.90
48604;DHT22;32708;51.212;6.788;2024-02-04T14:26:35;11.60;99.90
48604;DHT22;32708;51.212;6.788;2024-02-04T14:29:02;11.70;99.90
48604;DHT22;32708;51.212;6.788;2024-02-04T14:31:28;11.90;99.90
48604;DHT22;32708;51.212;6.788;2024-02-04T14:33:54;11.70;99.90
48604;DHT22;32708;51.212;6.788;2024-02-04T14:36:21;11.70;99.90
48604;DHT22;32708;51.212;6.788;2024-02-04T14:38:50;11.70;99.90
48604;DHT22;32708;51.212;6.788;2024-02-04T14:41:21;11.60;99.90
48604;DHT22;32708;51.212;6.788;2024-02-04T14:43:48;11.90;99.90
48604;DHT22;32708;51.212;6.788;2024-02-04T14:46:15;11.60;99.90
48604;DHT22;32708;51.212;6.788;2024-02-04T14:48:41;11.70;99.90
48604;DHT22;32708;51.212;6.788;2024-02-04T14:51:07;11.70;99.90
48604;DHT22;32708;51.212;6.788;2024-02-04T14:53:33;11.70;99.90
48604;DHT22;32708;51.212;6.788;2024-02-04T14:56:00;12.30;99.90
48604;DHT22;32708;51.212;6.788;2024-02-04T14:58:26;11.80;99.90
48604;DHT22;32708;51.212;6.788;2024-02-04T15:00:52;11.70;99.90
48604;DHT22;32708;51.212;6.788;2024-02-04T15:03:18;11.70;99.90
48604;DHT22;32708;51.212;6.788;2024-02-04T15:05:46;11.70;99.90
48604;DHT22;32708;51.212;6.788;2024-02-04T15:08:13;11.70;99.90
48604;DHT22;32708;51.212;6.788;2024-02-04T15:10:39;11.70;99.90
48604;DHT22;32708;51.212;6.788;2024-02-04T15:13:06;11.70;99.90
48604;DHT22;32708;51.212;6.788;2024-02-04T15:15:32;11.80;99.90
48604;DHT22;32708;51.212;6.788;2024-02-04T15:17:59;11.90;99.90
48604;DHT22;32708;51.212;6.788;2024-02-04T15:20:26;11.80;99.90
48604;DHT22;32708;51.212;6.788;2024-02-04T15:23:03;11.80;99.90
48604;DHT22;32708;51.212;6.788;2024-02-04T15:26:22;11.80;99.90
48604;DHT22;32708;51.212;6.788;2024-02-04T15:30:16;11.00;99.90
48604;DHT22;32708;51.212;6.788;2024-02-04T15:33:34;12.00;99.90
48604;DHT22;32708;51.212;6.788;2024-02-04T15:36:06;11.70;99.90
48604;DHT22;32708;51.212;6.788;2024-02-04T15:38:33;11.70;99.90
48604;DHT22;32708;51.212;6.788;2024-02-04T15:41:04;11.70;99.90
48604;DHT22;32708;51.212;6.788;2024-02-04T15:43:31;11.70;99.90
48604;DHT22;32708;51.212;6.788;2024-02-04T15:45:58;11.70;99.90
48604;DHT22;32708;51.212;6.788;2024-02-04T15:48:32;11.70;99.90